Time;durP1;ratioP1;P1;durP2;ratioP2;P2;SDS_P1;SDS_P2;PMS_P1;PMS_P2;Temp;Humidity;BMP_temperature;BMP_pressure;BME280_temperature;BME280_humidity;BME280_pressure;Samples;Min_cycle;Max_cycle;Signal;HPM_P1;HPM_P2
2023/07/16 00:02:09;;;;;;;19.58;11.75;;;27.00;99.90;;;;;;4865311;29;20115;-78
2023/07/16 00:04:37;;;;;;;19.83;10.82;;;26.90;99.90;;;;;;4867960;29;20132;-79
2023/07/16 00:07:06;;;;;;;15.45;11.40;;;26.90;99.90;;;;;;4851189;29;20037;-78
2023/07/16 00:09:34;;;;;;;23.80;12.25;;;27.00;99.90;;;;;;4868316;29;20777;-80
2023/07/16 00:12:01;;;;;;;18.65;11.35;;;27.00;99.90;;;;;;4865102;29;20379;-79
2023/07/16 00:14:28;;;;;;;15.75;10.93;;;27.00;99.90;;;;;;4868705;29;20494;-79
2023/07/16 00:16:55;;;;;;;18.42;10.40;;;27.10;99.90;;;;;;4881637;29;20064;-80
2023/07/16 00:19:23;;;;;;;19.25;10.60;;;27.10;99.90;;;;;;4880724;29;20043;-80
2023/07/16 00:21:50;;;;;;;19.42;11.25;;;27.10;99.90;;;;;;4882085;29;20112;-80
2023/07/16 00:24:17;;;;;;;19.02;12.52;;;27.00;99.90;;;;;;4866053;29;20430;-80
2023/07/16 00:26:45;;;;;;;16.85;11.05;;;27.00;99.90;;;;;;4882173;29;20053;-78
2023/07/16 00:29:13;;;;;;;19.73;11.68;;;26.90;99.90;;;;;;4871808;29;20093;-80
2023/07/16 00:31:43;;;;;;;18.48;11.20;;;26.90;99.90;;;;;;4869128;29;20123;-83
2023/07/16 00:34:14;;;;;;;15.27;11.30;;;26.90;99.90;;;;;;4885134;29;20052;-78
2023/07/16 00:36:41;;;;;;;17.85;11.40;;;26.90;99.90;;;;;;4879254;29;20040;-79
2023/07/16 00:39:10;;;;;;;17.38;10.80;;;27.00;99.90;;;;;;4875456;29;20117;-77
2023/07/16 00:41:37;;;;;;;18.70;10.93;;;27.00;99.90;;;;;;4855971;29;20089;-78
2023/07/16 00:44:04;;;;;;;18.08;11.40;;;26.90;99.90;;;;;;4862633;29;20049;-78
2023/07/16 00:46:32;;;;;;;21.20;12.10;;;26.80;99.90;;;;;;4864915;29;20032;-82
2023/07/16 00:48:59;;;;;;;156.60;109.50;;;26.70;99.90;;;;;;4876000;29;20040;-76
2023/07/16 00:51:28;;;;;;;111.82;83.57;;;26.70;99.90;;;;;;4872011;29;20053;-79
2023/07/16 00:53:56;;;;;;;67.63;43.63;;;26.70;99.90;;;;;;4866866;29;20096;-80
2023/07/16 00:56:23;;;;;;;26.98;19.33;;;26.70;99.90;;;;;;4847196;29;20058;-83
2023/07/16 00:58:50;;;;;;;21.20;15.27;;;26.60;99.90;;;;;;4883856;29;20112;-88
2023/07/16 01:01:18;;;;;;;18.85;13.02;;;26.70;99.90;;;;;;4876652;29;20474;-79
2023/07/16 01:03:48;;;;;;;19.33;11.30;;;26.60;99.90;;;;;;4850768;29;20060;-80
2023/07/16 01:06:33;;;;;;;19.58;11.20;;;26.60;99.90;;;;;;4878576;29;20484;-79
2023/07/16 01:09:08;;;;;;;18.70;10.93;;;26.70;99.90;;;;;;4874226;29;20033;-77
2023/07/16 01:11:37;;;;;;;21.58;12.02;;;26.60;99.90;;;;;;4872289;29;20422;-78
2023/07/16 01:14:06;;;;;;;19.17;12.18;;;26.70;99.90;;;;;;4876795;29;20456;-78
2023/07/16 01:16:34;;;;;;;19.45;13.90;;;26.60;99.90;;;;;;4861888;29;20442;-81
2023/07/16 01:19:02;;;;;;;17.25;11.30;;;26.60;99.90;;;;;;4859652;29;20042;-81
2023/07/16 01:21:51;;;;;;;15.63;11.13;;;26.60;99.90;;;;;;4874950;29;20499;-81
2023/07/16 01:24:44;;;;;;;16.73;10.85;;;26.60;99.90;;;;;;4846540;29;20367;-80
2023/07/16 01:27:47;;;;;;;14.20;10.30;;;26.60;99.90;;;;;;4878271;29;20056;-81
2023/07/16 01:30:16;;;;;;;16.33;10.18;;;26.60;99.90;;;;;;4859448;29;20070;-78
2023/07/16 01:32:45;;;;;;;16.23;10.63;;;26.50;99.90;;;;;;4858390;29;20123;-79
2023/07/16 01:35:14;;;;;;;14.25;10.68;;;26.40;99.90;;;;;;4846271;29;20063;-79
2023/07/16 01:37:42;;;;;;;15.13;9.52;;;26.30;99.90;;;;;;4877307;29;20069;-79
2023/07/16 01:40:11;;;;;;;17.38;9.55;;;26.20;99.90;;;;;;4874768;29;20049;-81
2023/07/16 01:42:39;;;;;;;14.48;9.07;;;26.20;99.90;;;;;;4862653;29;20105;-79
2023/07/16 01:45:07;;;;;;;13.68;9.75;;;26.20;99.90;;;;;;4859797;29;20077;-79
2023/07/16 01:47:43;;;;;;;15.25;10.02;;;26.20;99.90;;;;;;4872061;29;20045;-81
2023/07/16 01:50:10;;;;;;;14.63;9.85;;;26.20;99.90;;;;;;4879671;29;20037;-79
2023/07/16 01:52:38;;;;;;;15.95;10.63;;;26.20;99.90;;;;;;4861156;29;20049;-79
2023/07/16 01:55:06;;;;;;;19.40;9.98;;;26.20;99.90;;;;;;4873454;29;20090;-80
2023/07/16 01:57:33;;;;;;;18.85;9.50;;;26.20;99.90;;;;;;4847909;29;20052;-81
2023/07/16 02:00:01;;;;;;;18.08;10.40;;;26.10;99.90;;;;;;4846091;29;20049;-79
2023/07/16 02:02:29;;;;;;;14.23;9.52;;;26.10;99.90;;;;;;4847030;29;20438;-79
2023/07/16 02:04:57;;;;;;;16.38;9.38;;;26.00;99.90;;;;;;4858535;29;20419;-80
2023/07/16 02:07:24;;;;;;;15.25;9.15;;;26.00;99.90;;;;;;4872624;29;20505;-80
2023/07/16 02:09:51;;;;;;;14.82;9.43;;;25.80;99.90;;;;;;4859456;29;20128;-80
2023/07/16 02:12:19;;;;;;;13.98;9.13;;;25.90;99.90;;;;;;4861937;29;20112;-80
2023/07/16 02:14:46;;;;;;;17.98;9.90;;;25.80;99.90;;;;;;4877064;29;20049;-79
2023/07/16 02:17:13;;;;;;;12.20;9.05;;;25.80;99.90;;;;;;4861400;29;20124;-79
2023/07/16 02:19:40;;;;;;;17.20;9.48;;;25.90;99.90;;;;;;4858947;29;20582;-79
2023/07/16 02:22:08;;;;;;;15.77;9.32;;;25.80;99.90;;;;;;4852853;29;20049;-80
2023/07/16 02:24:35;;;;;;;20.63;9.13;;;25.80;99.90;;;;;;4847012;29;20109;-78
2023/07/16 02:27:03;;;;;;;16.35;9.25;;;25.90;99.90;;;;;;4863397;29;20069;-85
2023/07/16 02:29:32;;;;;;;15.30;8.77;;;25.90;99.90;;;;;;4864882;29;20041;-84
2023/07/16 02:31:59;;;;;;;18.00;9.90;;;25.80;99.90;;;;;;4872134;29;20061;-86
2023/07/16 02:34:26;;;;;;;17.45;9.77;;;25.90;99.90;;;;;;4876294;29;20037;-80
2023/07/16 02:36:55;;;;;;;16.95;9.52;;;25.90;99.90;;;;;;4876822;29;20045;-85
2023/07/16 02:39:23;;;;;;;16.38;9.10;;;25.90;99.90;;;;;;4878130;29;20039;-86
2023/07/16 02:41:51;;;;;;;18.13;9.43;;;25.90;99.90;;;;;;4886068;29;20033;-79
2023/07/16 02:44:18;;;;;;;16.10;9.20;;;25.90;99.90;;;;;;4868912;29;20048;-77
2023/07/16 02:46:45;;;;;;;17.50;9.80;;;25.90;99.90;;;;;;4873857;29;20040;-82
2023/07/16 02:49:12;;;;;;;15.98;10.45;;;25.90;99.90;;;;;;4885015;29;20037;-87
2023/07/16 02:51:40;;;;;;;16.20;9.80;;;25.80;99.90;;;;;;4854102;29;20058;-85
2023/07/16 02:54:07;;;;;;;14.85;9.70;;;25.90;99.90;;;;;;4866945;29;20056;-86
2023/07/16 02:56:34;;;;;;;17.55;9.93;;;25.90;99.90;;;;;;4833592;29;20451;-80
2023/07/16 02:59:02;;;;;;;14.75;10.05;;;25.90;99.90;;;;;;4858159;29;20124;-77
2023/07/16 03:01:29;;;;;;;16.23;9.95;;;26.00;99.90;;;;;;4858072;29;20053;-80
2023/07/16 03:03:57;;;;;;;17.50;9.93;;;25.90;99.90;;;;;;4865202;29;20042;-83
2023/07/16 03:06:24;;;;;;;24.40;10.60;;;25.90;99.90;;;;;;4867670;29;20065;-79
2023/07/16 03:08:51;;;;;;;16.23;9.77;;;25.90;99.90;;;;;;4850047;29;20191;-79
2023/07/16 03:11:19;;;;;;;16.90;10.43;;;25.80;99.90;;;;;;4869303;29;20509;-85
2023/07/16 03:13:46;;;;;;;14.55;9.50;;;25.80;99.90;;;;;;4867879;29;20057;-83
2023/07/16 03:16:13;;;;;;;16.23;10.38;;;25.80;99.90;;;;;;4843934;29;20116;-81
2023/07/16 03:18:41;;;;;;;18.15;10.80;;;25.80;99.90;;;;;;4865513;29;20046;-80
2023/07/16 03:21:08;;;;;;;19.30;11.07;;;25.80;99.90;;;;;;4865829;29;20038;-80
2023/07/16 03:23:36;;;;;;;14.07;10.45;;;25.90;99.90;;;;;;4847810;29;20069;-81
2023/07/16 03:26:03;;;;;;;15.82;10.98;;;25.90;99.90;;;;;;4874122;29;20112;-79
2023/07/16 03:28:30;;;;;;;13.90;10.63;;;25.90;99.90;;;;;;4870566;29;20044;-79
2023/07/16 03:30:57;;;;;;;16.70;10.20;;;25.70;99.90;;;;;;4856132;29;20045;-80
2023/07/16 03:33:25;;;;;;;15.07;10.60;;;25.60;99.90;;;;;;4852877;29;20045;-80
2023/07/16 03:35:52;;;;;;;15.95;10.50;;;25.60;99.90;;;;;;4860804;29;20157;-80
2023/07/16 03:38:20;;;;;;;15.95;10.15;;;25.60;99.90;;;;;;4856882;29;20064;-81
2023/07/16 03:40:48;;;;;;;19.63;11.20;;;25.80;99.90;;;;;;4860861;29;20359;-79
2023/07/16 03:43:16;;;;;;;15.32;10.23;;;25.90;99.90;;;;;;4870933;29;20422;-78
2023/07/16 03:45:43;;;;;;;17.20;10.57;;;26.00;99.90;;;;;;4845116;29;20042;-77
2023/07/16 03:48:11;;;;;;;19.17;11.05;;;26.10;99.90;;;;;;4867002;29;20044;-77
2023/07/16 03:50:39;;;;;;;15.55;10.02;;;26.10;99.90;;;;;;4872712;29;20502;-76
2023/07/16 03:53:06;;;;;;;17.08;11.18;;;26.10;99.90;;;;;;4873592;29;20132;-76
2023/07/16 03:55:33;;;;;;;20.63;11.25;;;26.10;99.90;;;;;;4868373;29;20044;-78
2023/07/16 03:58:01;;;;;;;17.13;11.13;;;26.10;99.90;;;;;;4868384;29;20128;-77
2023/07/16 04:00:28;;;;;;;15.77;11.00;;;26.10;99.90;;;;;;4868893;29;20069;-78
2023/07/16 04:02:55;;;;;;;15.98;10.82;;;26.20;99.90;;;;;;4849330;29;20113;-78
2023/07/16 04:05:23;;;;;;;17.15;10.68;;;26.10;99.90;;;;;;4860644;29;20562;-83
2023/07/16 04:07:51;;;;;;;15.20;10.35;;;26.10;99.90;;;;;;4868397;29;20033;-89
2023/07/16 04:10:18;;;;;;;13.95;10.23;;;26.20;99.90;;;;;;4850802;29;20112;-78
2023/07/16 04:12:45;;;;;;;16.70;10.40;;;26.20;99.90;;;;;;4866611;29;20504;-78
2023/07/16 04:15:13;;;;;;;18.20;10.32;;;26.10;99.90;;;;;;4875463;29;20037;-80
2023/07/16 04:17:40;;;;;;;20.33;10.98;;;26.10;99.90;;;;;;4873481;29;20093;-79
2023/07/16 04:20:08;;;;;;;17.63;10.55;;;26.20;99.90;;;;;;4854146;29;20075;-78
2023/07/16 04:22:36;;;;;;;16.30;10.52;;;26.00;99.90;;;;;;4858501;29;20489;-78
2023/07/16 04:25:03;;;;;;;13.45;9.75;;;26.00;99.90;;;;;;4872583;29;20037;-85
2023/07/16 04:27:31;;;;;;;16.83;10.68;;;26.10;99.90;;;;;;4870611;29;20029;-84
2023/07/16 04:29:58;;;;;;;16.13;9.35;;;25.90;99.90;;;;;;4884602;29;20536;-81
2023/07/16 04:32:25;;;;;;;14.80;10.48;;;25.90;99.90;;;;;;4855866;29;20037;-81
2023/07/16 04:34:53;;;;;;;14.63;9.80;;;26.00;99.90;;;;;;4866230;29;20049;-86
2023/07/16 04:37:20;;;;;;;13.35;9.48;;;26.00;99.90;;;;;;4863312;29;20045;-82
2023/07/16 04:39:47;;;;;;;15.10;9.55;;;25.90;99.90;;;;;;4880553;29;20041;-80
2023/07/16 04:42:16;;;;;;;15.65;9.93;;;25.80;99.90;;;;;;4878598;29;20068;-79
2023/07/16 04:44:44;;;;;;;19.85;10.57;;;25.60;99.90;;;;;;4872075;29;20051;-81
2023/07/16 04:47:11;;;;;;;14.90;10.93;;;25.70;99.90;;;;;;4874795;29;20112;-80
2023/07/16 04:49:38;;;;;;;14.75;10.48;;;25.70;99.90;;;;;;4878507;29;20076;-81
2023/07/16 04:52:06;;;;;;;19.25;9.63;;;25.70;99.90;;;;;;4861023;29;20128;-78
2023/07/16 04:54:37;;;;;;;17.13;9.73;;;25.80;99.90;;;;;;4880018;29;20427;-80
2023/07/16 04:57:06;;;;;;;20.35;10.73;;;25.90;99.90;;;;;;4877800;29;20529;-79
2023/07/16 04:59:34;;;;;;;13.68;9.63;;;26.00;99.90;;;;;;4878677;29;20123;-78
2023/07/16 05:02:06;;;;;;;13.63;10.68;;;26.00;99.90;;;;;;4846385;29;20427;-79
2023/07/16 05:04:35;;;;;;;20.02;11.13;;;26.00;99.90;;;;;;4878976;29;20041;-80
2023/07/16 05:07:02;;;;;;;16.77;11.07;;;26.20;99.90;;;;;;4860039;29;20056;-78
2023/07/16 05:09:30;;;;;;;14.77;9.70;;;26.10;99.90;;;;;;4856538;29;20060;-79
2023/07/16 05:11:58;;;;;;;15.98;10.48;;;26.30;99.90;;;;;;4862027;29;20148;-79
2023/07/16 05:14:27;;;;;;;14.85;10.35;;;26.30;99.90;;;;;;4878502;29;20049;-79
2023/07/16 05:16:55;;;;;;;18.35;10.82;;;26.30;99.90;;;;;;4850592;29;20053;-78
2023/07/16 05:19:23;;;;;;;16.15;10.48;;;26.20;99.90;;;;;;4851447;29;20045;-78
2023/07/16 05:21:50;;;;;;;16.52;10.77;;;26.20;99.90;;;;;;4861154;29;20038;-79
2023/07/16 05:24:18;;;;;;;18.48;10.65;;;26.30;99.90;;;;;;4874027;29;20037;-80
2023/07/16 05:26:45;;;;;;;14.13;10.48;;;26.30;99.90;;;;;;4879378;29;20045;-80
2023/07/16 05:29:12;;;;;;;15.95;10.40;;;26.40;99.90;;;;;;4847423;29;20051;-80
2023/07/16 05:31:42;;;;;;;17.02;11.43;;;26.50;99.90;;;;;;4878968;29;20132;-80
2023/07/16 05:34:09;;;;;;;20.00;10.53;;;26.60;99.90;;;;;;4877520;29;20029;-79
2023/07/16 05:36:36;;;;;;;17.67;10.60;;;26.60;99.90;;;;;;4844195;29;20508;-79
2023/07/16 05:39:04;;;;;;;16.67;10.65;;;26.60;99.90;;;;;;4848062;29;20063;-82
2023/07/16 05:41:31;;;;;;;17.83;10.88;;;26.80;99.90;;;;;;4879780;29;20037;-78
2023/07/16 05:43:58;;;;;;;17.38;10.30;;;26.80;99.90;;;;;;4879436;29;20380;-77
2023/07/16 05:46:25;;;;;;;16.13;11.45;;;26.80;99.90;;;;;;4879601;29;20066;-78
2023/07/16 05:48:53;;;;;;;14.93;10.60;;;26.90;99.90;;;;;;4863010;29;20061;-82
2023/07/16 05:51:20;;;;;;;16.08;11.02;;;27.00;99.90;;;;;;4862221;29;20067;-82
2023/07/16 05:53:47;;;;;;;15.48;10.85;;;27.10;99.90;;;;;;4862411;29;20041;-79
2023/07/16 05:56:14;;;;;;;20.58;12.45;;;27.00;99.90;;;;;;4864255;29;20049;-80
2023/07/16 05:58:42;;;;;;;16.33;11.32;;;26.90;99.90;;;;;;4863832;29;20074;-78
2023/07/16 06:01:09;;;;;;;19.52;11.88;;;27.00;99.90;;;;;;4866985;29;20382;-78
2023/07/16 06:03:37;;;;;;;19.48;11.90;;;27.10;99.90;;;;;;4862194;29;20040;-78
2023/07/16 06:06:05;;;;;;;22.45;11.57;;;27.20;99.90;;;;;;4877582;29;20048;-79
2023/07/16 06:08:50;;;;;;;17.02;11.77;;;27.20;99.90;;;;;;4878081;29;20056;-78
2023/07/16 06:11:18;;;;;;;19.08;10.73;;;27.30;99.90;;;;;;4877386;29;20037;-80
2023/07/16 06:13:45;;;;;;;20.02;12.18;;;27.30;99.90;;;;;;4859154;29;20121;-79
2023/07/16 06:16:12;;;;;;;17.77;11.82;;;27.40;99.90;;;;;;4873394;29;20049;-77
2023/07/16 06:18:40;;;;;;;17.60;11.10;;;27.40;99.90;;;;;;4871833;29;20497;-78
2023/07/16 06:21:07;;;;;;;17.27;12.10;;;27.50;99.90;;;;;;4873676;29;20112;-78
2023/07/16 06:23:35;;;;;;;22.00;13.65;;;27.50;99.90;;;;;;4878721;29;20450;-77
2023/07/16 06:26:02;;;;;;;20.30;12.32;;;27.60;99.90;;;;;;4860421;29;20406;-79
2023/07/16 06:28:30;;;;;;;25.30;12.20;;;27.50;99.90;;;;;;4877439;29;20060;-80
2023/07/16 06:30:58;;;;;;;18.02;11.57;;;27.50;99.90;;;;;;4876914;29;20152;-79
2023/07/16 06:33:27;;;;;;;19.25;12.73;;;27.60;99.90;;;;;;4878087;29;20043;-79
2023/07/16 06:35:54;;;;;;;20.00;13.77;;;27.60;99.90;;;;;;4878220;29;20120;-79
2023/07/16 06:38:21;;;;;;;19.65;12.25;;;27.70;99.90;;;;;;4845188;29;20072;-79
2023/07/16 06:40:49;;;;;;;17.50;12.55;;;27.70;99.90;;;;;;4872245;29;20098;-79
2023/07/16 06:43:17;;;;;;;17.58;11.85;;;27.80;99.90;;;;;;4872706;29;20097;-81
2023/07/16 06:45:44;;;;;;;19.98;11.50;;;27.80;99.90;;;;;;4863160;29;20041;-79
2023/07/16 06:48:12;;;;;;;24.17;13.45;;;27.80;99.90;;;;;;4857881;29;20041;-78
2023/07/16 06:50:39;;;;;;;50.50;35.20;;;27.90;99.90;;;;;;4861089;29;20061;-81
2023/07/16 06:53:24;;;;;;;34.30;25.27;;;27.80;99.90;;;;;;4860869;29;20055;-79
2023/07/16 06:55:52;;;;;;;27.10;17.90;;;27.80;99.90;;;;;;4861631;29;20041;-77
2023/07/16 06:58:19;;;;;;;19.60;13.00;;;27.80;99.90;;;;;;4873760;29;20063;-77
2023/07/16 07:00:47;;;;;;;21.23;12.85;;;27.90;99.90;;;;;;4856190;29;20041;-77
2023/07/16 07:03:15;;;;;;;21.23;12.23;;;28.00;99.90;;;;;;4865557;29;20049;-78
2023/07/16 07:05:42;;;;;;;19.58;10.27;;;28.10;99.90;;;;;;4867012;29;20049;-76
2023/07/16 07:08:40;;;;;;;17.65;12.00;;;28.10;99.90;;;;;;4870023;29;20176;-76
2023/07/16 07:11:28;;;;;;;15.10;10.50;;;28.10;99.90;;;;;;4885156;29;20404;-79
2023/07/16 07:13:57;;;;;;;17.65;10.70;;;28.20;99.90;;;;;;4854320;29;20045;-78
2023/07/16 07:16:27;;;;;;;18.25;10.02;;;28.30;99.90;;;;;;4878598;29;20043;-78
2023/07/16 07:18:56;;;;;;;27.85;18.65;;;28.40;99.90;;;;;;4868093;29;20398;-76
2023/07/16 07:21:24;;;;;;;57.97;41.88;;;28.30;99.90;;;;;;4879304;29;20048;-77
2023/07/16 07:23:51;;;;;;;25.60;20.25;;;28.20;99.90;;;;;;4880634;29;20652;-77
2023/07/16 07:26:18;;;;;;;57.05;38.72;;;28.20;99.90;;;;;;4878506;29;20104;-79
2023/07/16 07:28:45;;;;;;;23.83;17.23;;;28.20;99.90;;;;;;4879726;29;20121;-75
2023/07/16 07:31:13;;;;;;;74.88;53.05;;;28.30;99.90;;;;;;4874144;29;20115;-75
2023/07/16 07:33:41;;;;;;;18.58;14.73;;;28.30;99.90;;;;;;4855713;29;20052;-76
2023/07/16 07:36:09;;;;;;;22.15;16.92;;;28.40;99.90;;;;;;4864410;29;20052;-77
2023/07/16 07:38:38;;;;;;;18.98;12.68;;;28.50;99.90;;;;;;4869698;29;20053;-79
2023/07/16 07:41:06;;;;;;;17.10;10.82;;;28.50;99.90;;;;;;4852296;29;20076;-79
2023/07/16 07:43:34;;;;;;;17.15;10.77;;;28.60;99.90;;;;;;4878085;29;20053;-79
2023/07/16 07:46:02;;;;;;;13.35;10.52;;;28.60;99.90;;;;;;4870236;29;20050;-78
2023/07/16 07:48:29;;;;;;;16.95;10.50;;;28.70;99.90;;;;;;4859450;29;20056;-77
2023/07/16 07:50:57;;;;;;;18.20;9.77;;;28.80;99.90;;;;;;4865537;29;20089;-77
2023/07/16 07:53:24;;;;;;;15.68;9.88;;;28.80;99.90;;;;;;4863784;29;20041;-78
2023/07/16 07:55:51;;;;;;;16.40;10.20;;;28.80;99.90;;;;;;4874602;29;20052;-79
2023/07/16 07:58:20;;;;;;;16.63;9.82;;;28.70;99.90;;;;;;4877598;29;20064;-79
2023/07/16 08:00:47;;;;;;;16.80;9.48;;;28.70;99.90;;;;;;4881738;29;20392;-79
2023/07/16 08:03:15;;;;;;;14.55;9.90;;;28.80;99.90;;;;;;4872926;29;20440;-79
2023/07/16 08:05:42;;;;;;;16.23;9.90;;;28.70;99.90;;;;;;4867241;29;20097;-77
2023/07/16 08:08:10;;;;;;;15.82;9.55;;;28.80;99.90;;;;;;4877943;29;20377;-78
2023/07/16 08:10:37;;;;;;;15.07;9.98;;;28.90;99.90;;;;;;4867794;29;20049;-78
2023/07/16 08:13:04;;;;;;;16.02;10.07;;;28.80;99.90;;;;;;4868922;29;20342;-77
2023/07/16 08:15:32;;;;;;;15.82;8.82;;;28.90;99.90;;;;;;4875862;29;20090;-77
2023/07/16 08:17:59;;;;;;;15.23;9.35;;;29.10;99.90;;;;;;4853788;29;20427;-75
2023/07/16 08:20:27;;;;;;;13.63;9.73;;;29.00;99.90;;;;;;4851903;29;20041;-79
2023/07/16 08:22:55;;;;;;;15.45;9.48;;;29.00;99.90;;;;;;4868864;29;20496;-76
2023/07/16 08:25:23;;;;;;;13.63;9.95;;;29.10;99.90;;;;;;4875599;29;20053;-74
2023/07/16 08:27:50;;;;;;;14.88;10.02;;;29.20;99.90;;;;;;4865048;29;20124;-76
2023/07/16 08:30:17;;;;;;;14.70;9.52;;;29.20;99.90;;;;;;4879062;29;20064;-76
2023/07/16 08:32:45;;;;;;;27.90;20.63;;;29.20;99.90;;;;;;4861424;29;20439;-77
2023/07/16 08:35:16;;;;;;;28.25;21.88;;;29.20;99.90;;;;;;4870849;29;20485;-76
2023/07/16 08:37:47;;;;;;;70.18;51.38;;;29.20;99.90;;;;;;4873231;29;20112;-78
2023/07/16 08:40:16;;;;;;;;;;;29.30;99.90;;;;;;4858645;29;20082;-76
2023/07/16 08:42:48;;;;;;;27.42;18.48;;;29.40;99.90;;;;;;4851737;29;19924;-77
2023/07/16 08:45:16;;;;;;;29.63;21.33;;;29.40;99.90;;;;;;4879244;29;20037;-78
2023/07/16 08:47:43;;;;;;;60.08;44.25;;;29.50;99.90;;;;;;4863445;29;20546;-76
2023/07/16 08:50:12;;;;;;;25.67;18.73;;;29.50;99.90;;;;;;4880524;29;20057;-77
2023/07/16 08:52:40;;;;;;;18.90;11.18;;;29.50;99.90;;;;;;4862374;29;20382;-76
2023/07/16 08:55:10;;;;;;;20.75;10.52;;;29.50;99.90;;;;;;4867839;29;20063;-76
2023/07/16 08:57:45;;;;;;;18.08;10.85;;;29.70;99.90;;;;;;4863587;29;20435;-77
2023/07/16 09:00:14;;;;;;;14.18;9.85;;;29.80;99.90;;;;;;4869372;29;20064;-77
2023/07/16 09:02:42;;;;;;;14.60;10.05;;;29.90;99.90;;;;;;4883653;29;20096;-78
2023/07/16 09:05:26;;;;;;;14.40;10.27;;;30.00;99.90;;;;;;4861993;29;20037;-76
2023/07/16 09:08:06;;;;;;;15.75;9.95;;;30.00;99.90;;;;;;4878781;29;20478;-77
2023/07/16 09:10:34;;;;;;;18.52;9.85;;;30.10;99.90;;;;;;4885154;29;20044;-77
2023/07/16 09:13:01;;;;;;;36.75;27.25;;;30.20;99.90;;;;;;4876620;29;20060;-75
2023/07/16 09:15:30;;;;;;;58.90;40.58;;;30.20;99.90;;;;;;4877499;29;20033;-75
2023/07/16 09:17:57;;;;;;;18.35;13.73;;;30.20;99.90;;;;;;4883030;29;20053;-75
2023/07/16 09:20:27;;;;;;;20.85;12.50;;;30.10;99.90;;;;;;4884988;29;20044;-76
2023/07/16 09:22:56;;;;;;;15.07;9.98;;;30.10;99.90;;;;;;4881512;29;20048;-79
2023/07/16 09:25:34;;;;;;;17.98;10.93;;;30.10;99.90;;;;;;4888808;29;20044;-80
2023/07/16 09:28:05;;;;;;;25.33;16.02;;;30.30;99.90;;;;;;4831753;29;20053;-75
2023/07/16 09:31:08;;;;;;;16.02;11.15;;;30.30;99.90;;;;;;4867247;29;20049;-76
2023/07/16 09:34:29;;;;;;;19.17;10.70;;;30.30;99.90;;;;;;4891569;29;20377;-76
2023/07/16 09:37:13;;;;;;;;;;;30.60;99.90;;;;;;4871040;29;20036;-76
2023/07/16 09:40:03;;;;;;;12.75;8.50;;;30.70;99.90;;;;;;4874562;29;19968;-76
2023/07/16 09:42:34;;;;;;;17.08;11.38;;;30.80;99.90;;;;;;4882869;29;20072;-76
2023/07/16 09:45:07;;;;;;;19.85;14.10;;;30.70;99.00;;;;;;4883915;29;20036;-73
2023/07/16 09:47:37;;;;;;;27.15;20.05;;;30.60;99.60;;;;;;4862442;29;20129;-77
2023/07/16 09:50:07;;;;;;;27.20;19.15;;;30.70;99.90;;;;;;4880018;29;20037;-76
2023/07/16 09:52:39;;;;;;;18.80;12.52;;;31.00;99.10;;;;;;4866786;29;20068;-81
2023/07/16 09:55:18;;;;;;;27.58;19.85;;;31.00;98.30;;;;;;4879556;29;20052;-77
2023/07/16 09:57:54;;;;;;;38.85;29.58;;;30.90;98.60;;;;;;4881096;29;20097;-76
2023/07/16 10:00:23;;;;;;;37.50;29.00;;;30.90;97.30;;;;;;4870900;29;20041;-76
2023/07/16 10:02:52;;;;;;;42.28;32.88;;;30.90;96.10;;;;;;4863357;29;20097;-75
2023/07/16 10:05:25;;;;;;;34.25;25.95;;;30.50;93.60;;;;;;4867588;29;20041;-76
2023/07/16 10:08:00;;;;;;;23.08;16.48;;;30.30;96.40;;;;;;4851910;29;20394;-75
2023/07/16 10:10:44;;;;;;;18.98;13.13;;;30.70;96.30;;;;;;4846339;29;20549;-80
2023/07/16 10:13:13;;;;;;;34.33;28.27;;;31.00;97.90;;;;;;4861782;29;20052;-77
2023/07/16 10:15:52;;;;;;;109.43;81.38;;;31.20;97.70;;;;;;4879832;29;20060;-81
2023/07/16 10:18:34;;;;;;;28.95;21.70;;;31.30;97.20;;;;;;4874211;29;20040;-80
2023/07/16 10:21:07;;;;;;;13.85;11.13;;;31.50;96.90;;;;;;4868868;29;20041;-81
2023/07/16 10:23:43;;;;;;;16.67;10.75;;;31.70;96.80;;;;;;4882331;29;20074;-81
2023/07/16 10:26:15;;;;;;;13.43;9.00;;;32.00;96.50;;;;;;4877509;29;20048;-78
2023/07/16 10:28:47;;;;;;;14.25;9.50;;;32.10;96.30;;;;;;4858480;29;20105;-79
2023/07/16 10:31:23;;;;;;;14.60;9.48;;;32.30;96.20;;;;;;4862083;29;20131;-78
2023/07/16 10:34:01;;;;;;;15.52;9.70;;;32.30;96.40;;;;;;4870489;29;20108;-73
2023/07/16 10:36:29;;;;;;;12.02;9.20;;;32.30;96.10;;;;;;4887047;29;20116;-79
2023/07/16 10:39:06;;;;;;;15.93;9.18;;;32.40;95.90;;;;;;4837361;29;20367;-79
2023/07/16 10:41:38;;;;;;;15.45;9.02;;;32.60;96.50;;;;;;4875232;29;20041;-79
2023/07/16 10:44:32;;;;;;;18.63;9.68;;;32.60;96.10;;;;;;4871889;29;20033;-76
2023/07/16 10:47:00;;;;;;;17.27;9.73;;;32.70;96.40;;;;;;4880375;29;20080;-76
2023/07/16 10:49:29;;;;;;;11.68;8.93;;;32.80;95.40;;;;;;4880854;29;20068;-79
2023/07/16 10:52:00;;;;;;;14.30;9.75;;;33.00;95.80;;;;;;4863462;29;20382;-76
2023/07/16 10:54:30;;;;;;;13.52;8.95;;;32.90;94.30;;;;;;4884423;29;20036;-79
2023/07/16 10:56:57;;;;;;;13.00;9.23;;;32.80;93.90;;;;;;4864773;29;20053;-79
2023/07/16 10:59:25;;;;;;;17.42;9.60;;;33.00;93.40;;;;;;4867608;29;20049;-81
2023/07/16 11:01:53;;;;;;;12.57;9.50;;;33.10;93.70;;;;;;4867274;29;20075;-80
2023/07/16 11:04:20;;;;;;;16.55;10.15;;;33.20;93.80;;;;;;4852548;29;20044;-78
2023/07/16 11:06:50;;;;;;;17.45;9.38;;;33.30;93.30;;;;;;4858170;29;20049;-79
2023/07/16 11:09:20;;;;;;;14.40;9.32;;;33.30;92.70;;;;;;4886752;29;20092;-79
2023/07/16 11:11:47;;;;;;;15.40;9.27;;;33.40;92.50;;;;;;4865771;29;20038;-79
2023/07/16 11:14:14;;;;;;;16.17;10.82;;;33.50;92.40;;;;;;4865598;29;20473;-79
2023/07/16 11:16:42;;;;;;;16.70;9.07;;;33.70;92.70;;;;;;4878188;29;20553;-79
2023/07/16 11:19:12;;;;;;;20.98;8.93;;;33.60;91.90;;;;;;4877350;29;20065;-79
2023/07/16 11:21:40;;;;;;;14.85;9.85;;;33.60;92.30;;;;;;4878912;29;20100;-77
2023/07/16 11:24:15;;;;;;;17.42;8.60;;;33.70;91.70;;;;;;4877542;29;20064;-78
2023/07/16 11:26:51;;;;;;;12.88;9.25;;;33.80;91.80;;;;;;4886389;29;20041;-77
2023/07/16 11:29:18;;;;;;;16.50;9.60;;;33.90;91.60;;;;;;4880538;29;20069;-80
2023/07/16 11:31:50;;;;;;;15.23;9.63;;;34.10;91.20;;;;;;4887450;29;20108;-79
2023/07/16 11:34:22;;;;;;;17.67;9.02;;;34.00;90.30;;;;;;4870881;29;20033;-79
2023/07/16 11:37:10;;;;;;;33.30;23.77;;;33.70;90.00;;;;;;4890816;29;20044;-78
2023/07/16 11:39:39;;;;;;;86.82;71.53;;;33.70;88.90;;;;;;4870158;29;20611;-75
2023/07/16 11:42:06;;;;;;;67.13;54.58;;;33.30;87.50;;;;;;4864362;29;20050;-78
2023/07/16 11:44:35;;;;;;;53.95;44.30;;;33.10;87.50;;;;;;4882962;29;20033;-76
2023/07/16 11:47:07;;;;;;;81.13;63.70;;;33.20;87.90;;;;;;4884838;29;20164;-77
2023/07/16 11:49:36;;;;;;;32.05;24.67;;;33.20;86.50;;;;;;4861786;29;20124;-79
2023/07/16 11:52:04;;;;;;;64.30;46.45;;;33.10;88.00;;;;;;4861126;29;20086;-77
2023/07/16 11:54:32;;;;;;;47.53;38.33;;;33.20;86.80;;;;;;4877487;29;20041;-79
2023/07/16 11:57:02;;;;;;;21.38;18.25;;;33.30;88.90;;;;;;4876109;29;20049;-78
2023/07/16 11:59:31;;;;;;;16.42;10.63;;;33.50;89.10;;;;;;4882805;29;20061;-78
2023/07/16 12:02:03;;;;;;;19.65;11.60;;;33.80;90.00;;;;;;4865817;29;20078;-79
2023/07/16 12:04:34;;;;;;;15.57;11.13;;;33.80;89.40;;;;;;4888530;29;20041;-81
2023/07/16 12:07:15;;;;;;;19.88;9.73;;;34.00;90.00;;;;;;4864847;29;20049;-76
2023/07/16 12:09:44;;;;;;;14.55;9.73;;;34.40;89.30;;;;;;4855850;29;20041;-78
2023/07/16 12:12:12;;;;;;;51.33;36.60;;;34.30;89.40;;;;;;4864564;29;20037;-76
2023/07/16 12:14:39;;;;;;;67.18;52.25;;;34.20;89.40;;;;;;4879980;29;20065;-80
2023/07/16 12:17:07;;;;;;;41.25;32.72;;;34.20;88.60;;;;;;4861299;29;20073;-79
2023/07/16 12:19:36;;;;;;;30.00;24.27;;;34.40;88.70;;;;;;4874195;29;20041;-77
2023/07/16 12:22:05;;;;;;;31.60;26.05;;;34.50;88.80;;;;;;4881460;29;20419;-80
2023/07/16 12:24:35;;;;;;;44.95;34.58;;;34.50;87.30;;;;;;4848213;29;20032;-78
2023/07/16 12:27:09;;;;;;;75.35;62.67;;;34.30;83.50;;;;;;4870285;29;20537;-81
2023/07/16 12:29:59;;;;;;;60.78;45.10;;;34.00;85.50;;;;;;4879279;29;20029;-80
2023/07/16 12:32:44;;;;;;;25.73;18.92;;;33.90;86.40;;;;;;4861417;29;20074;-80
2023/07/16 12:35:14;;;;;;;15.02;11.05;;;34.40;86.10;;;;;;4862397;29;20446;-80
2023/07/16 12:37:42;;;;;;;17.77;11.35;;;34.80;87.90;;;;;;4853177;29;20049;-78
2023/07/16 12:40:11;;;;;;;18.63;12.32;;;34.90;86.30;;;;;;4873641;29;20068;-78
2023/07/16 12:42:38;;;;;;;15.77;11.30;;;35.00;86.20;;;;;;4849952;29;20056;-78
2023/07/16 12:45:06;;;;;;;17.25;10.95;;;34.90;86.20;;;;;;4858954;29;20069;-77